Leland Grove, Illinois
Current Conditions -  °F | °C
As of 6:52 AM on Monday 22 Dec 2014 (Local Time) from KSPI Reporting Station
Light Rain Light Rain  
Wind Chill: 28°   Ceiling: 4100
Heat Index: 36°   Visibility: 5mi
Dew Point: 32°   Wind: 13mph
Humidity: 86%   Direction: 130°SE
Pressure: 29.83"   Gusts: NA
Location:  39.7725°N, 89.6857°W
Report Text: KSPI 221252Z 13011KT 5SM -RA BR SCT033 OVC041 02/00 A2983 RMK AO2 RAB19 SLP105 P0000 T00220000
Loading
Personal Weather Stations






























Interactive Weather Map New forecast layout! Learn more

10-Day Weather Forecast

Advertisements
Track Severe Weather on mobile